Vidor, TX (77662)

9:43 PM CST on December 21, 2014 (GMT -0600)
BeaumontEOC | Change Station
CLOSE
Current Station
Personal Weather Station
Location: Beaumont, TX
Elevation: 33 ft
Nearby Weather Stations

Elev 33 ft 30.08 °N, 94.10 °W | Updated 2 seconds ago

Overcast
Overcast
54.4 °F
Feels Like 54.4 °F
N
2.5
Wind Variable Wind from NNW
Gusts 2.5 mph

Today
High -- | Low -- °F
--% Chance of Precip.
Yesterday
High -- | Low -- °F
Precip. -- in
7:08 AM 5:20 PM
New Moon, 0% visible
Pressure 29.95 in
Visibility 7.0 miles
Clouds Overcast 1000 ft
Dew Point 54 °F
Humidity 100%
Rainfall 0.00 in
Snow Depth Not available.
UV 0.0 out of 12
Pollen 6.30 out of 12
Air Quality Not available.
Flu Activity Not available.
METAR KORG 220335Z AUTO 10004KT 7SM OVC010 12/11 A2995 RMK AO2 T01210108

More Conditions Fewer Conditions

Pressure 29.95 in
Visibility 7.0 miles
Clouds Overcast 1000 ft
Dew Point 54 °F
Humidity 100%
Rainfall 0.00 in
Snow Depth Not available.
UV 0.0 out of 12
Pollen 6.30 out of 12
Air Quality Not available.
Flu Activity Not available.
METAR KORG 220335Z AUTO 10004KT 7SM OVC010 12/11 A2995 RMK AO2 T01210108

More Conditions Fewer Conditions

10-Day Weather Forecast

Almanac

Astronomy

Dec. 21, 2014 Rise Set
Actual Time
Civil Twilight
Nautical Twilight
Astronomical Twilight
Moon
Length of Visible Light
Length of Day
Tomorrow will be .
, % of the Moon is Illuminated

Today's Extremes

State Highs State Lows

Community

WunderPhotos

Upload Photos

1,779,531 photos uploaded!

WunderBlogs® & News

Nearby

Air Quality

  Air Quality AQ Index Pollutant
Not available.

Snow Depth

Station Depth Elevation

Earthquake Activity

City Distance Mag. Time & Date
Minimum magnitude displayed is 2.5.

Coastal Water Temperatures

Place Temperature

Nearby Weather Stations